createdAt,value
2022-08-02T00:00:44.153Z,3.10
2022-08-02T00:03:46.961Z,3.45
2022-08-02T00:06:49.729Z,3.40
2022-08-02T00:09:52.503Z,3.22
2022-08-02T00:12:55.237Z,4.25
2022-08-02T00:15:58.377Z,3.65
2022-08-02T00:19:01.074Z,3.55
2022-08-02T00:22:03.859Z,3.30
2022-08-02T00:25:06.989Z,3.25
2022-08-02T00:28:11.175Z,3.20
2022-08-02T00:31:13.758Z,3.60
2022-08-02T00:34:30.195Z,4.20
2022-08-02T00:37:39.073Z,3.75
2022-08-02T00:40:48.454Z,3.78
2022-08-02T00:43:52.523Z,3.60
2022-08-02T00:46:55.412Z,3.62
2022-08-02T00:49:58.006Z,3.87
2022-08-02T00:53:01.032Z,4.07
2022-08-02T00:56:03.975Z,3.45
2022-08-02T00:59:06.814Z,3.92
2022-08-02T01:02:10.078Z,3.58
2022-08-02T01:05:13.719Z,3.50
2022-08-02T01:08:16.449Z,3.70
2022-08-02T01:11:19.625Z,3.50
2022-08-02T01:14:24.590Z,3.60
2022-08-02T01:17:45.323Z,4.03
2022-08-02T01:21:29.938Z,4.00
2022-08-02T01:24:46.180Z,4.22
2022-08-02T01:28:28.299Z,3.95
2022-08-02T01:31:35.928Z,4.37
2022-08-02T01:34:44.180Z,4.23
2022-08-02T01:37:55.106Z,5.07
2022-08-02T01:41:01.849Z,4.18
2022-08-02T01:44:06.320Z,4.78
2022-08-02T01:47:17.992Z,4.22
2022-08-02T01:50:27.719Z,4.93
2022-08-02T01:53:31.744Z,4.10
2022-08-02T01:56:35.957Z,4.60
2022-08-02T01:59:42.605Z,4.55
2022-08-02T02:02:48.108Z,4.65
2022-08-02T02:05:53.838Z,4.32
2022-08-02T02:08:58.653Z,4.82
2022-08-02T02:12:06.217Z,4.50
2022-08-02T02:15:17.803Z,4.05
2022-08-02T02:18:24.416Z,4.85
2022-08-02T02:21:26.992Z,4.10
2022-08-02T02:24:30.223Z,4.53
2022-08-02T02:27:34.433Z,4.40
2022-08-02T02:30:45.639Z,4.28
2022-08-02T02:34:20.929Z,4.30
2022-08-02T02:37:26.750Z,4.87
2022-08-02T02:40:32.831Z,4.60
2022-08-02T02:43:38.422Z,6.20
2022-08-02T02:46:41.757Z,4.70
2022-08-02T02:49:47.384Z,4.78
2022-08-02T02:52:50.790Z,5.00
2022-08-02T02:56:01.765Z,4.55
2022-08-02T02:59:07.361Z,4.75
2022-08-02T03:02:11.713Z,4.50
2022-08-02T03:05:15.821Z,4.68
2022-08-02T03:08:18.792Z,4.30
2022-08-02T03:11:22.563Z,4.55
2022-08-02T03:14:25.836Z,5.68
2022-08-02T03:17:39.004Z,4.68
2022-08-02T03:20:43.451Z,5.57
2022-08-02T03:23:46.175Z,5.22
2022-08-02T03:26:48.957Z,4.55
2022-08-02T03:29:51.508Z,4.70
2022-08-02T03:32:54.478Z,4.85
2022-08-02T03:36:02.371Z,4.80
2022-08-02T03:39:06.742Z,5.32
2022-08-02T03:42:10.041Z,4.90
2022-08-02T03:45:18.594Z,5.12
2022-08-02T03:48:34.339Z,5.40
2022-08-02T03:51:37.970Z,4.93
2022-08-02T03:54:45.136Z,5.50
2022-08-02T04:00:56.254Z,4.78
2022-08-02T04:03:59.045Z,5.53
2022-08-02T04:07:01.763Z,5.22
2022-08-02T04:10:11.171Z,4.95
2022-08-02T04:13:13.771Z,4.70
2022-08-02T04:16:23.620Z,5.00
2022-08-02T04:19:39.529Z,4.65
2022-08-02T04:22:58.038Z,5.00
2022-08-02T04:26:01.840Z,5.75
2022-08-02T04:29:08.295Z,4.30
2022-08-02T04:32:11.206Z,6.55
2022-08-02T04:35:19.810Z,4.95
2022-08-02T04:38:23.071Z,4.68
2022-08-02T04:41:38.347Z,4.72
2022-08-02T04:44:46.302Z,4.90
2022-08-02T04:48:01.451Z,4.65
2022-08-02T04:51:06.267Z,5.87
2022-08-02T04:54:10.645Z,4.85
2022-08-02T04:57:31.747Z,4.20
2022-08-02T05:00:35.182Z,4.60
2022-08-02T05:03:37.861Z,7.15
2022-08-02T05:06:40.680Z,4.95
2022-08-02T05:09:43.196Z,4.43
2022-08-02T05:12:46.264Z,4.68
2022-08-02T05:15:50.548Z,4.82
2022-08-02T05:18:53.559Z,5.43
2022-08-02T05:21:56.156Z,4.78
2022-08-02T05:24:58.989Z,4.80
2022-08-02T05:28:01.508Z,4.70
2022-08-02T05:31:04.559Z,4.68
2022-08-02T05:34:16.089Z,4.15
2022-08-02T05:37:19.274Z,4.32
2022-08-02T05:40:25.920Z,4.30
2022-08-02T05:43:28.962Z,4.78
2022-08-02T05:46:31.596Z,4.50
2022-08-02T05:49:34.445Z,4.60
2022-08-02T05:52:59.094Z,4.20
2022-08-02T05:56:15.337Z,4.43
2022-08-02T05:59:31.138Z,4.18
2022-08-02T06:03:00.879Z,4.03
2022-08-02T06:06:16.241Z,3.97
2022-08-02T06:09:21.038Z,4.95
2022-08-02T06:12:33.000Z,4.68
2022-08-02T06:15:40.701Z,3.80
2022-08-02T06:18:57.199Z,3.65
2022-08-02T06:22:42.131Z,4.22
2022-08-02T06:25:50.997Z,4.20
2022-08-02T06:28:55.690Z,4.18
2022-08-02T06:31:58.909Z,7.97
2022-08-02T06:35:03.981Z,4.72
2022-08-02T06:38:09.549Z,3.50
2022-08-02T06:41:15.623Z,5.18
2022-08-02T06:47:41.020Z,4.12
2022-08-02T06:50:44.428Z,4.25
2022-08-02T06:53:47.613Z,3.30
2022-08-02T06:56:50.524Z,3.20
2022-08-02T06:59:53.464Z,3.33
2022-08-02T07:02:56.678Z,3.20
2022-08-02T07:06:00.997Z,4.12
2022-08-02T07:09:20.606Z,3.92
2022-08-02T07:12:23.714Z,4.30
2022-08-02T07:15:26.566Z,4.10
2022-08-02T07:18:29.352Z,4.00
2022-08-02T07:21:56.700Z,3.67
2022-08-02T07:24:56.841Z,3.33
2022-08-02T07:27:59.564Z,3.75
2022-08-02T07:31:04.195Z,3.37
2022-08-02T07:34:07.498Z,3.85
2022-08-02T07:37:22.336Z,3.37
2022-08-02T07:40:33.755Z,3.95
2022-08-02T07:43:37.071Z,3.47
2022-08-02T07:46:39.846Z,3.80
2022-08-02T07:49:42.626Z,5.15
2022-08-02T07:52:46.320Z,7.22
2022-08-02T07:55:48.818Z,7.87
2022-08-02T07:58:51.993Z,3.92
2022-08-02T08:01:54.655Z,4.85
2022-08-02T08:04:58.272Z,3.50
2022-08-02T08:08:00.757Z,3.92
2022-08-02T08:11:03.712Z,5.22
2022-08-02T08:14:25.341Z,3.28
2022-08-02T08:17:28.162Z,3.40
2022-08-02T08:20:30.696Z,5.57
2022-08-02T08:23:33.513Z,4.43
2022-08-02T08:26:36.066Z,3.15
2022-08-02T08:29:38.851Z,3.33
2022-08-02T08:32:41.357Z,2.90
2022-08-02T08:35:44.111Z,2.60
2022-08-02T08:38:46.625Z,2.92
2022-08-02T08:41:49.908Z,3.25
2022-08-02T08:44:52.562Z,2.60
2022-08-02T08:48:12.745Z,2.42
2022-08-02T08:51:19.367Z,3.50
2022-08-02T08:54:27.724Z,3.43
2022-08-02T08:57:31.734Z,2.70
2022-08-02T09:00:36.403Z,2.90
2022-08-02T09:03:39.211Z,3.00
2022-08-02T09:06:42.545Z,2.65
2022-08-02T09:09:45.061Z,2.67
2022-08-02T09:13:38.050Z,2.83
2022-08-02T09:16:36.708Z,2.83
2022-08-02T09:19:45.746Z,3.58
2022-08-02T09:23:07.249Z,3.83
2022-08-02T09:26:13.971Z,2.75
2022-08-02T09:29:18.368Z,3.03
2022-08-02T09:32:24.431Z,2.70
2022-08-02T09:36:06.853Z,4.35
2022-08-02T09:39:05.341Z,3.12
2022-08-02T09:42:10.889Z,3.67
2022-08-02T09:45:13.959Z,2.67
2022-08-02T09:48:16.574Z,2.70
2022-08-02T09:51:22.086Z,3.75
2022-08-02T09:54:28.732Z,2.70
2022-08-02T09:57:33.672Z,2.67
2022-08-02T10:00:51.777Z,2.62
2022-08-02T10:03:57.774Z,2.67
2022-08-02T10:07:17.179Z,2.83
2022-08-02T10:10:35.154Z,3.47
2022-08-02T10:13:37.725Z,3.83
2022-08-02T10:16:42.488Z,3.33
2022-08-02T10:20:02.675Z,2.67
2022-08-02T10:23:10.249Z,3.53
2022-08-02T10:26:15.942Z,2.15
2022-08-02T10:29:24.279Z,2.40
2022-08-02T10:32:39.537Z,2.47
2022-08-02T10:36:06.703Z,1.95
2022-08-02T10:39:10.455Z,2.53
2022-08-02T10:42:33.928Z,2.22
2022-08-02T10:45:36.522Z,3.75
2022-08-02T10:49:38.611Z,2.42
2022-08-02T10:52:40.850Z,4.12
2022-08-02T10:55:47.095Z,2.10
2022-08-02T10:59:27.519Z,2.60
2022-08-02T11:02:53.292Z,2.08
2022-08-02T11:06:07.575Z,2.35
2022-08-02T11:09:32.950Z,2.10
2022-08-02T11:13:04.972Z,2.10
2022-08-02T11:16:11.621Z,1.65
2022-08-02T11:19:14.868Z,1.90
2022-08-02T11:22:25.199Z,2.15
2022-08-02T11:25:43.008Z,2.97
2022-08-02T11:28:51.706Z,2.05
2022-08-02T11:31:54.213Z,2.80
2022-08-02T11:34:59.196Z,2.03
2022-08-02T11:38:16.212Z,1.92
2022-08-02T11:41:47.450Z,1.98
2022-08-02T11:44:46.768Z,2.00
2022-08-02T11:47:52.013Z,2.00
2022-08-02T11:54:28.555Z,2.47
2022-08-02T11:58:04.484Z,2.47
2022-08-02T12:01:16.315Z,3.12
2022-08-02T12:04:22.842Z,2.30
2022-08-02T12:07:34.357Z,1.87
2022-08-02T12:10:50.238Z,2.40
2022-08-02T12:13:57.219Z,2.03
2022-08-02T12:17:18.734Z,2.28
2022-08-02T12:20:37.448Z,1.85
2022-08-02T12:23:57.155Z,2.85
2022-08-02T12:27:03.901Z,1.87
2022-08-02T12:30:13.300Z,2.12
2022-08-02T12:33:17.673Z,2.30
2022-08-02T12:36:21.758Z,2.03
2022-08-02T12:39:33.806Z,2.20
2022-08-02T12:42:46.762Z,1.92
2022-08-02T12:45:55.268Z,1.98
2022-08-02T12:49:17.447Z,2.30
2022-08-02T12:52:22.299Z,1.92
2022-08-02T12:55:59.319Z,2.25
2022-08-02T12:58:50.750Z,2.05
2022-08-02T13:01:53.628Z,2.45
2022-08-02T13:04:59.680Z,1.83
2022-08-02T13:08:04.483Z,1.90
2022-08-02T13:11:07.358Z,1.77
2022-08-02T13:14:10.214Z,1.87
2022-08-02T13:17:12.931Z,1.83
2022-08-02T13:20:17.554Z,2.10
2022-08-02T13:23:21.694Z,2.00
2022-08-02T13:26:29.600Z,1.73
2022-08-02T13:29:33.900Z,2.28
2022-08-02T13:32:36.727Z,1.80
2022-08-02T13:35:39.210Z,1.85
2022-08-02T13:38:42.171Z,1.98
2022-08-02T13:41:44.822Z,2.10
2022-08-02T13:44:47.652Z,1.70
2022-08-02T13:47:57.559Z,1.75
2022-08-02T13:51:11.959Z,1.20
2022-08-02T13:54:17.869Z,1.92
2022-08-02T13:57:20.684Z,1.87
2022-08-02T14:00:34.212Z,1.20
2022-08-02T14:04:07.524Z,1.17
2022-08-02T14:07:04.831Z,5.28
2022-08-02T14:10:08.147Z,1.40
2022-08-02T14:13:11.109Z,2.75
2022-08-02T14:16:13.999Z,2.05
2022-08-02T14:19:17.471Z,1.33
2022-08-02T14:22:20.441Z,1.00
2022-08-02T14:25:23.000Z,2.37
2022-08-02T14:28:26.162Z,2.05
2022-08-02T14:31:29.621Z,1.23
2022-08-02T14:34:32.422Z,1.23
2022-08-02T14:37:35.365Z,0.95
2022-08-02T14:40:38.373Z,0.77
2022-08-02T14:43:59.689Z,1.10
2022-08-02T14:47:02.548Z,0.93
2022-08-02T14:50:05.549Z,1.40
2022-08-02T14:53:12.069Z,1.48
2022-08-02T14:56:14.927Z,1.10
2022-08-02T14:59:17.823Z,1.05
2022-08-02T15:02:20.324Z,1.10
2022-08-02T15:05:23.188Z,0.80
2022-08-02T15:08:25.917Z,1.20
2022-08-02T15:11:28.846Z,0.80
2022-08-02T15:14:31.504Z,0.88
2022-08-02T15:17:34.337Z,1.30
2022-08-02T15:20:36.983Z,1.20
2022-08-02T15:23:42.461Z,1.00
2022-08-02T15:26:44.978Z,1.20
2022-08-02T15:29:47.829Z,2.42
2022-08-02T15:32:53.186Z,1.30
2022-08-02T15:35:57.260Z,2.80
2022-08-02T15:38:59.783Z,0.98
2022-08-02T15:42:03.210Z,1.37
2022-08-02T15:45:06.306Z,1.30
2022-08-02T15:48:09.161Z,1.50
2022-08-02T15:51:11.739Z,1.15
2022-08-02T15:54:14.628Z,1.73
2022-08-02T15:57:17.094Z,2.35
2022-08-02T16:00:20.593Z,2.60
2022-08-02T16:03:23.366Z,1.60
2022-08-02T16:06:26.336Z,2.40
2022-08-02T16:09:29.533Z,2.15
2022-08-02T16:12:32.977Z,2.05
2022-08-02T16:15:35.908Z,1.62
2022-08-02T16:18:38.504Z,1.42
2022-08-02T16:21:41.289Z,1.67
2022-08-02T16:24:43.795Z,1.55
2022-08-02T16:27:59.279Z,1.62
2022-08-02T16:31:11.186Z,1.40
2022-08-02T16:34:15.296Z,1.57
2022-08-02T16:37:17.792Z,1.30
2022-08-02T16:40:24.919Z,1.30
2022-08-02T16:43:27.716Z,1.30
2022-08-02T16:46:32.476Z,1.42
2022-08-02T16:50:07.035Z,1.20
2022-08-02T16:52:58.628Z,4.65
2022-08-02T16:56:01.534Z,1.05
2022-08-02T16:59:04.321Z,1.10
2022-08-02T17:02:15.248Z,1.00
2022-08-02T17:05:21.564Z,1.27
2022-08-02T17:08:24.378Z,1.30
2022-08-02T17:11:39.946Z,1.30
2022-08-02T17:18:13.954Z,1.73
2022-08-02T17:21:18.266Z,2.33
2022-08-02T17:24:21.237Z,1.20
2022-08-02T17:27:23.710Z,1.50
2022-08-02T17:30:27.329Z,1.50
2022-08-02T17:33:29.924Z,1.02
2022-08-02T17:36:34.412Z,1.30
2022-08-02T17:39:44.248Z,1.70
2022-08-02T17:42:54.963Z,2.28
2022-08-02T17:45:59.863Z,1.83
2022-08-02T17:49:17.606Z,1.77
2022-08-02T17:52:51.867Z,1.60
2022-08-02T17:55:46.277Z,1.65
2022-08-02T17:58:54.097Z,1.27
2022-08-02T18:02:03.542Z,2.03
2022-08-02T18:05:11.581Z,1.70
2022-08-02T18:08:16.143Z,1.58
2022-08-02T18:11:52.948Z,1.98
2022-08-02T18:14:49.286Z,1.27
2022-08-02T18:20:58.686Z,1.90
2022-08-02T18:24:19.406Z,1.92
2022-08-02T18:27:26.641Z,1.23
2022-08-02T18:30:31.452Z,1.30
2022-08-02T18:33:57.290Z,1.33
2022-08-02T18:36:57.387Z,1.30
2022-08-02T18:40:00.149Z,1.20
2022-08-02T18:43:03.296Z,2.08
2022-08-02T18:46:16.051Z,1.23
2022-08-02T18:49:19.800Z,2.10
2022-08-02T18:52:31.034Z,1.40
2022-08-02T18:55:59.699Z,2.03
2022-08-02T18:58:58.466Z,2.47
2022-08-02T19:02:01.493Z,1.17
2022-08-02T19:05:07.054Z,1.42
2022-08-02T19:08:10.060Z,1.65
2022-08-02T19:11:13.593Z,1.42
2022-08-02T19:14:24.076Z,1.30
2022-08-02T19:17:55.104Z,0.85
2022-08-02T19:20:53.469Z,1.23
2022-08-02T19:23:56.179Z,1.30
2022-08-02T19:26:59.052Z,0.90
2022-08-02T19:30:16.368Z,2.00
2022-08-02T19:33:25.063Z,2.45
2022-08-02T19:36:42.784Z,1.10
2022-08-02T19:39:45.764Z,2.42
2022-08-02T19:44:20.926Z,1.45
2022-08-02T19:46:15.560Z,0.98
2022-08-02T19:49:20.250Z,1.25
2022-08-02T19:52:42.221Z,1.30
2022-08-02T19:56:01.097Z,1.30
2022-08-02T19:59:13.283Z,2.15
2022-08-02T20:02:18.351Z,1.20
2022-08-02T20:05:26.511Z,1.50
2022-08-02T20:08:35.331Z,2.65
2022-08-02T20:11:39.122Z,1.87
2022-08-02T20:14:50.819Z,1.25
2022-08-02T20:17:54.282Z,1.30
2022-08-02T20:20:56.899Z,1.40
2022-08-02T20:23:59.895Z,2.72
2022-08-02T20:27:03.251Z,2.25
2022-08-02T20:30:06.787Z,1.95
2022-08-02T20:33:21.660Z,1.20
2022-08-02T20:36:27.026Z,2.33
2022-08-02T20:39:42.987Z,1.23
2022-08-02T20:42:47.803Z,1.85
2022-08-02T20:45:50.866Z,2.05
2022-08-02T20:48:53.700Z,1.70
2022-08-02T20:52:01.710Z,1.60
2022-08-02T20:55:05.052Z,1.60
2022-08-02T20:58:11.827Z,1.92
2022-08-02T21:01:14.929Z,1.60
2022-08-02T21:04:19.271Z,1.50
2022-08-02T21:07:22.319Z,2.17
2022-08-02T21:10:25.307Z,1.60
2022-08-02T21:13:28.040Z,2.67
2022-08-02T21:16:30.568Z,2.25
2022-08-02T21:19:33.688Z,1.87
2022-08-02T21:22:36.213Z,1.80
2022-08-02T21:25:42.696Z,1.80
2022-08-02T21:29:03.717Z,2.75
2022-08-02T21:32:07.148Z,1.62
2022-08-02T21:35:10.603Z,1.70
2022-08-02T21:38:35.234Z,1.70
2022-08-02T21:41:39.441Z,1.95
2022-08-02T21:44:50.629Z,1.62
2022-08-02T21:47:53.342Z,1.83
2022-08-02T21:50:56.147Z,2.62
2022-08-02T21:54:17.080Z,2.47
2022-08-02T21:57:22.595Z,2.03
2022-08-02T22:00:28.901Z,1.65
2022-08-02T22:03:32.352Z,1.70
2022-08-02T22:06:35.537Z,1.67
2022-08-02T22:09:43.419Z,1.67
2022-08-02T22:12:47.841Z,3.70
2022-08-02T22:15:50.708Z,1.80
2022-08-02T22:18:53.679Z,1.73
2022-08-02T22:21:59.008Z,1.98
2022-08-02T22:25:01.808Z,2.15
2022-08-02T22:28:36.733Z,2.15
2022-08-02T22:31:40.849Z,2.62
2022-08-02T22:34:51.648Z,1.70
2022-08-02T22:38:14.755Z,1.67
2022-08-02T22:41:17.858Z,2.00
2022-08-02T22:44:20.597Z,2.08
2022-08-02T22:47:23.336Z,2.47
2022-08-02T22:50:31.838Z,2.00
2022-08-02T22:53:35.443Z,2.05
2022-08-02T22:56:38.556Z,2.40
2022-08-02T22:58:37.496Z,1.25
2022-08-02T22:59:47.447Z,2.92
2022-08-02T23:02:51.184Z,2.08
2022-08-02T23:05:54.234Z,2.15
2022-08-02T23:08:56.752Z,2.22
2022-08-02T23:11:59.609Z,1.95
2022-08-02T23:15:02.190Z,3.03
2022-08-02T23:18:24.754Z,2.03
2022-08-02T23:21:46.161Z,2.22
2022-08-02T23:27:58.028Z,2.55
2022-08-02T23:31:01.586Z,2.65
2022-08-02T23:34:04.952Z,2.20
2022-08-02T23:37:07.951Z,2.30
2022-08-02T23:40:10.864Z,3.05
2022-08-02T23:43:15.380Z,2.70
2022-08-02T23:46:17.950Z,2.67
2022-08-02T23:49:22.253Z,2.40
2022-08-02T23:52:24.969Z,1.95
2022-08-02T23:55:27.727Z,2.60
2022-08-02T23:58:32.855Z,2.70
